sensor_id;sensor_type;location;lat;lon;timestamp;pressure;altitude;pressure_sealevel;temperature;humidity
3082;BME280;1551;51.046;7.010;2023-04-04T00:00:26;102204.75;;;3.73;nan
3082;BME280;1551;51.046;7.010;2023-04-04T00:03:15;102195.13;;;3.65;nan
3082;BME280;1551;51.046;7.010;2023-04-04T00:06:03;102203.56;;;3.65;nan
3082;BME280;1551;51.046;7.010;2023-04-04T00:08:52;102203.38;;;3.61;nan
3082;BME280;1551;51.046;7.010;2023-04-04T00:11:41;102199.06;;;3.58;nan
3082;BME280;1551;51.046;7.010;2023-04-04T00:14:31;102196.38;;;3.55;nan
3082;BME280;1551;51.046;7.010;2023-04-04T00:17:19;102199.59;;;3.51;nan
3082;BME280;1551;51.046;7.010;2023-04-04T00:20:08;102195.88;;;3.43;nan
3082;BME280;1551;51.046;7.010;2023-04-04T00:22:58;102195.53;;;3.35;nan
3082;BME280;1551;51.046;7.010;2023-04-04T00:25:50;102203.19;;;3.37;nan
3082;BME280;1551;51.046;7.010;2023-04-04T00:28:40;102188.59;;;3.31;nan
3082;BME280;1551;51.046;7.010;2023-04-04T00:31:29;102199.22;;;3.23;nan
3082;BME280;1551;51.046;7.010;2023-04-04T00:34:18;102195.94;;;3.25;nan
3082;BME280;1551;51.046;7.010;2023-04-04T00:37:06;102199.25;;;3.24;nan
3082;BME280;1551;51.046;7.010;2023-04-04T00:39:55;102195.66;;;3.19;nan
3082;BME280;1551;51.046;7.010;2023-04-04T00:42:44;102209.03;;;3.17;nan
3082;BME280;1551;51.046;7.010;2023-04-04T00:45:34;102204.84;;;3.17;nan
3082;BME280;1551;51.046;7.010;2023-04-04T00:48:23;102200.47;;;3.13;nan
3082;BME280;1551;51.046;7.010;2023-04-04T00:51:12;102201.88;;;3.07;nan
3082;BME280;1551;51.046;7.010;2023-04-04T00:54:01;102203.38;;;3.03;nan
3082;BME280;1551;51.046;7.010;2023-04-04T00:56:50;102197.53;;;3.04;nan
3082;BME280;1551;51.046;7.010;2023-04-04T00:59:43;102201.72;;;3.04;nan
3082;BME280;1551;51.046;7.010;2023-04-04T01:02:32;102202.97;;;2.94;nan
3082;BME280;1551;51.046;7.010;2023-04-04T01:05:21;102201.22;;;2.93;nan
3082;BME280;1551;51.046;7.010;2023-04-04T01:08:10;102199.72;;;2.97;nan
3082;BME280;1551;51.046;7.010;2023-04-04T01:11:00;102193.00;;;2.97;nan
3082;BME280;1551;51.046;7.010;2023-04-04T01:13:49;102197.13;;;2.95;nan
3082;BME280;1551;51.046;7.010;2023-04-04T01:16:40;102185.75;;;2.86;nan
3082;BME280;1551;51.046;7.010;2023-04-04T01:22:42;102192.38;;;2.84;nan
3082;BME280;1551;51.046;7.010;2023-04-04T01:25:33;102190.59;;;2.81;nan
3082;BME280;1551;51.046;7.010;2023-04-04T01:28:29;102197.31;;;2.81;nan
3082;BME280;1551;51.046;7.010;2023-04-04T01:31:22;102196.28;;;2.77;nan
3082;BME280;1551;51.046;7.010;2023-04-04T01:37:29;102189.41;;;2.74;nan
3082;BME280;1551;51.046;7.010;2023-04-04T01:40:24;102188.63;;;2.75;nan
3082;BME280;1551;51.046;7.010;2023-04-04T01:43:16;102180.69;;;2.68;nan
3082;BME280;1551;51.046;7.010;2023-04-04T01:46:06;102181.31;;;2.62;nan
3082;BME280;1551;51.046;7.010;2023-04-04T01:48:56;102178.78;;;2.62;nan
3082;BME280;1551;51.046;7.010;2023-04-04T01:51:50;102178.78;;;2.62;nan
3082;BME280;1551;51.046;7.010;2023-04-04T01:54:40;102176.81;;;2.57;nan
3082;BME280;1551;51.046;7.010;2023-04-04T01:57:29;102170.63;;;2.50;nan
3082;BME280;1551;51.046;7.010;2023-04-04T02:00:18;102181.03;;;2.39;nan
3082;BME280;1551;51.046;7.010;2023-04-04T02:03:08;102173.47;;;2.39;nan
3082;BME280;1551;51.046;7.010;2023-04-04T02:05:57;102165.16;;;2.41;nan
3082;BME280;1551;51.046;7.010;2023-04-04T02:08:46;102168.69;;;2.45;nan
3082;BME280;1551;51.046;7.010;2023-04-04T02:11:36;102166.94;;;2.26;nan
3082;BME280;1551;51.046;7.010;2023-04-04T02:14:25;102172.94;;;2.28;nan
3082;BME280;1551;51.046;7.010;2023-04-04T02:17:15;102170.91;;;2.21;nan
3082;BME280;1551;51.046;7.010;2023-04-04T02:20:06;102170.75;;;2.18;nan
3082;BME280;1551;51.046;7.010;2023-04-04T02:22:55;102178.50;;;2.21;nan
3082;BME280;1551;51.046;7.010;2023-04-04T02:25:44;102168.91;;;2.14;nan
3082;BME280;1551;51.046;7.010;2023-04-04T02:28:33;102159.88;;;2.01;nan
3082;BME280;1551;51.046;7.010;2023-04-04T02:31:22;102173.06;;;2.14;nan
3082;BME280;1551;51.046;7.010;2023-04-04T02:34:11;102174.81;;;2.15;nan
3082;BME280;1551;51.046;7.010;2023-04-04T02:37:01;102166.59;;;2.19;nan
3082;BME280;1551;51.046;7.010;2023-04-04T02:39:50;102166.31;;;2.13;nan
3082;BME280;1551;51.046;7.010;2023-04-04T02:42:43;102156.72;;;2.05;nan
3082;BME280;1551;51.046;7.010;2023-04-04T02:45:32;102151.44;;;2.01;nan
3082;BME280;1551;51.046;7.010;2023-04-04T02:48:29;102152.66;;;2.09;nan
3082;BME280;1551;51.046;7.010;2023-04-04T02:51:23;102156.88;;;2.08;nan
3082;BME280;1551;51.046;7.010;2023-04-04T02:54:12;102147.09;;;2.16;nan
3082;BME280;1551;51.046;7.010;2023-04-04T02:57:05;102150.44;;;2.15;nan
3082;BME280;1551;51.046;7.010;2023-04-04T02:59:54;102148.78;;;2.16;nan
3082;BME280;1551;51.046;7.010;2023-04-04T03:02:43;102148.63;;;2.13;nan
3082;BME280;1551;51.046;7.010;2023-04-04T03:05:32;102154.41;;;2.10;nan
3082;BME280;1551;51.046;7.010;2023-04-04T03:08:21;102150.94;;;2.08;nan
3082;BME280;1551;51.046;7.010;2023-04-04T03:11:10;102145.03;;;2.07;nan
3082;BME280;1551;51.046;7.010;2023-04-04T03:13:59;102154.41;;;2.10;nan
3082;BME280;1551;51.046;7.010;2023-04-04T03:16:55;102152.66;;;2.09;nan
3082;BME280;1551;51.046;7.010;2023-04-04T03:19:44;102150.72;;;2.03;nan
3082;BME280;1551;51.046;7.010;2023-04-04T03:22:34;102147.28;;;2.01;nan
3082;BME280;1551;51.046;7.010;2023-04-04T03:25:24;102143.00;;;2.00;nan
3082;BME280;1551;51.046;7.010;2023-04-04T03:28:13;102148.59;;;1.95;nan
3082;BME280;1551;51.046;7.010;2023-04-04T03:31:03;102151.28;;;1.98;nan
3082;BME280;1551;51.046;7.010;2023-04-04T03:33:53;102151.22;;;1.96;nan
3082;BME280;1551;51.046;7.010;2023-04-04T03:36:44;102148.50;;;1.92;nan
3082;BME280;1551;51.046;7.010;2023-04-04T03:39:34;102146.25;;;1.80;nan
3082;BME280;1551;51.046;7.010;2023-04-04T03:42:25;102142.19;;;1.84;nan
3082;BME280;1551;51.046;7.010;2023-04-04T03:45:14;102147.56;;;1.90;nan
3082;BME280;1551;51.046;7.010;2023-04-04T03:48:05;102146.03;;;1.93;nan
3082;BME280;1551;51.046;7.010;2023-04-04T03:50:55;102147.56;;;1.90;nan
3082;BME280;1551;51.046;7.010;2023-04-04T03:53:45;102138.94;;;1.86;nan
3082;BME280;1551;51.046;7.010;2023-04-04T03:56:34;102133.63;;;1.80;nan
3082;BME280;1551;51.046;7.010;2023-04-04T03:59:28;102142.19;;;1.84;nan
3082;BME280;1551;51.046;7.010;2023-04-04T04:02:17;102145.19;;;1.77;nan
3082;BME280;1551;51.046;7.010;2023-04-04T04:05:08;102143.06;;;1.84;nan
3082;BME280;1551;51.046;7.010;2023-04-04T04:07:57;102138.78;;;1.83;nan
3082;BME280;1551;51.046;7.010;2023-04-04T04:10:46;102131.16;;;1.82;nan
3082;BME280;1551;51.046;7.010;2023-04-04T04:13:35;102137.47;;;1.74;nan
3082;BME280;1551;51.046;7.010;2023-04-04T04:16:26;102133.63;;;1.64;nan
3082;BME280;1551;51.046;7.010;2023-04-04T04:19:16;102131.13;;;1.64;nan
3082;BME280;1551;51.046;7.010;2023-04-04T04:22:05;102125.56;;;1.71;nan
3082;BME280;1551;51.046;7.010;2023-04-04T04:24:54;102124.63;;;1.69;nan
3082;BME280;1551;51.046;7.010;2023-04-04T04:27:43;102128.03;;;1.70;nan
3082;BME280;1551;51.046;7.010;2023-04-04T04:30:34;102117.78;;;1.67;nan
3082;BME280;1551;51.046;7.010;2023-04-04T04:33:27;102131.97;;;2.90;nan
3082;BME280;1551;51.046;7.010;2023-04-04T04:36:20;102133.75;;;5.02;nan
3082;BME280;1551;51.046;7.010;2023-04-04T04:39:26;102134.53;;;6.25;nan
3082;BME280;1551;51.046;7.010;2023-04-04T04:42:33;102137.44;;;6.95;nan
3082;BME280;1551;51.046;7.010;2023-04-04T04:45:24;102128.94;;;7.26;nan
3082;BME280;1551;51.046;7.010;2023-04-04T04:48:25;102134.84;;;7.57;nan
3082;BME280;1551;51.046;7.010;2023-04-04T04:51:19;102126.19;;;7.84;nan
3082;BME280;1551;51.046;7.010;2023-04-04T04:54:13;102124.56;;;7.53;nan
3082;BME280;1551;51.046;7.010;2023-04-04T04:57:05;102134.78;;;6.06;nan
3082;BME280;1551;51.046;7.010;2023-04-04T04:59:56;102131.38;;;5.06;nan
3082;BME280;1551;51.046;7.010;2023-04-04T05:02:47;102125.34;;;4.35;nan
3082;BME280;1551;51.046;7.010;2023-04-04T05:05:42;102132.47;;;3.80;nan
3082;BME280;1551;51.046;7.010;2023-04-04T05:08:35;102134.59;;;3.31;nan
3082;BME280;1551;51.046;7.010;2023-04-04T05:11:38;102136.75;;;3.03;nan
3082;BME280;1551;51.046;7.010;2023-04-04T05:14:30;102134.09;;;2.81;nan
3082;BME280;1551;51.046;7.010;2023-04-04T05:17:19;102143.50;;;2.65;nan
3082;BME280;1551;51.046;7.010;2023-04-04T05:20:11;102141.97;;;2.50;nan
3082;BME280;1551;51.046;7.010;2023-04-04T05:23:00;102133.81;;;2.38;nan
3082;BME280;1551;51.046;7.010;2023-04-04T05:25:56;102135.34;;;2.34;nan
3082;BME280;1551;51.046;7.010;2023-04-04T05:28:50;102136.66;;;2.26;nan
3082;BME280;1551;51.046;7.010;2023-04-04T05:31:39;102128.06;;;2.23;nan
3082;BME280;1551;51.046;7.010;2023-04-04T05:34:38;102138.09;;;2.21;nan
3082;BME280;1551;51.046;7.010;2023-04-04T05:37:31;102139.63;;;2.18;nan
3082;BME280;1551;51.046;7.010;2023-04-04T05:40:22;102151.22;;;2.14;nan
3082;BME280;1551;51.046;7.010;2023-04-04T05:43:17;102148.84;;;2.17;nan
3082;BME280;1551;51.046;7.010;2023-04-04T05:46:20;102144.66;;;2.18;nan
3082;BME280;1551;51.046;7.010;2023-04-04T05:49:13;102142.34;;;2.22;nan
3082;BME280;1551;51.046;7.010;2023-04-04T05:52:08;102151.22;;;2.32;nan
3082;BME280;1551;51.046;7.010;2023-04-04T05:54:59;102152.53;;;2.41;nan
3082;BME280;1551;51.046;7.010;2023-04-04T05:57:51;102157.28;;;2.53;nan
3082;BME280;1551;51.046;7.010;2023-04-04T06:00:47;102152.53;;;2.60;nan
3082;BME280;1551;51.046;7.010;2023-04-04T06:03:36;102151.25;;;2.68;nan
3082;BME280;1551;51.046;7.010;2023-04-04T06:06:27;102165.78;;;2.92;nan
3082;BME280;1551;51.046;7.010;2023-04-04T06:09:16;102168.91;;;3.05;nan
3082;BME280;1551;51.046;7.010;2023-04-04T06:12:06;102168.84;;;3.04;nan
3082;BME280;1551;51.046;7.010;2023-04-04T06:14:57;102176.78;;;3.11;nan
3082;BME280;1551;51.046;7.010;2023-04-04T06:17:46;102177.38;;;3.25;nan
3082;BME280;1551;51.046;7.010;2023-04-04T06:20:35;102174.50;;;3.36;nan
3082;BME280;1551;51.046;7.010;2023-04-04T06:23:24;102181.75;;;3.48;nan
3082;BME280;1551;51.046;7.010;2023-04-04T06:26:14;102179.78;;;3.62;nan
3082;BME280;1551;51.046;7.010;2023-04-04T06:29:04;102179.06;;;3.85;nan
3082;BME280;1551;51.046;7.010;2023-04-04T06:31:56;102184.88;;;4.24;nan
3082;BME280;1551;51.046;7.010;2023-04-04T06:34:56;102180.81;;;4.71;nan
3082;BME280;1551;51.046;7.010;2023-04-04T06:37:59;102178.94;;;5.12;nan
3082;BME280;1551;51.046;7.010;2023-04-04T06:40:49;102183.06;;;5.32;nan
3082;BME280;1551;51.046;7.010;2023-04-04T06:43:38;102186.81;;;5.67;nan
3082;BME280;1551;51.046;7.010;2023-04-04T06:46:29;102185.00;;;5.88;nan
3082;BME280;1551;51.046;7.010;2023-04-04T06:49:19;102187.94;;;6.27;nan
3082;BME280;1551;51.046;7.010;2023-04-04T06:52:08;102193.69;;;6.48;nan
3082;BME280;1551;51.046;7.010;2023-04-04T06:54:57;102197.91;;;6.74;nan
3082;BME280;1551;51.046;7.010;2023-04-04T06:57:46;102196.09;;;6.70;nan
3082;BME280;1551;51.046;7.010;2023-04-04T07:00:35;102189.72;;;6.56;nan
3082;BME280;1551;51.046;7.010;2023-04-04T07:03:24;102198.25;;;6.58;nan
3082;BME280;1551;51.046;7.010;2023-04-04T07:06:14;102203.13;;;6.52;nan
3082;BME280;1551;51.046;7.010;2023-04-04T07:09:03;102203.25;;;6.55;nan
3082;BME280;1551;51.046;7.010;2023-04-04T07:11:52;102207.59;;;6.87;nan
3082;BME280;1551;51.046;7.010;2023-04-04T07:14:41;102207.91;;;7.27;nan
3082;BME280;1551;51.046;7.010;2023-04-04T07:17:30;102216.56;;;7.63;nan
3082;BME280;1551;51.046;7.010;2023-04-04T07:20:19;102210.72;;;7.68;nan
3082;BME280;1551;51.046;7.010;2023-04-04T07:23:08;102210.25;;;7.82;nan
3082;BME280;1551;51.046;7.010;2023-04-04T07:26:01;102216.50;;;7.95;nan
3082;BME280;1551;51.046;7.010;2023-04-04T07:28:50;102214.13;;;8.01;nan
3082;BME280;1551;51.046;7.010;2023-04-04T07:31:39;102209.38;;;8.16;nan
3082;BME280;1551;51.046;7.010;2023-04-04T07:34:28;102211.66;;;8.38;nan
3082;BME280;1551;51.046;7.010;2023-04-04T07:37:17;102207.16;;;8.65;nan
3082;BME280;1551;51.046;7.010;2023-04-04T07:40:07;102214.97;;;8.71;nan
3082;BME280;1551;51.046;7.010;2023-04-04T07:42:57;102211.97;;;8.52;nan
3082;BME280;1551;51.046;7.010;2023-04-04T07:45:46;102206.16;;;8.57;nan
3082;BME280;1551;51.046;7.010;2023-04-04T07:48:34;102201.63;;;8.84;nan
3082;BME280;1551;51.046;7.010;2023-04-04T07:51:23;102216.44;;;8.99;nan
3082;BME280;1551;51.046;7.010;2023-04-04T07:54:17;102208.25;;;9.17;nan
3082;BME280;1551;51.046;7.010;2023-04-04T07:57:05;102211.56;;;9.54;nan
3082;BME280;1551;51.046;7.010;2023-04-04T07:59:57;102201.94;;;9.88;nan
3082;BME280;1551;51.046;7.010;2023-04-04T08:02:51;102190.91;;;9.92;nan
3082;BME280;1551;51.046;7.010;2023-04-04T08:05:40;102198.16;;;10.15;nan
3082;BME280;1551;51.046;7.010;2023-04-04T08:08:30;102198.34;;;10.26;nan
3082;BME280;1551;51.046;7.010;2023-04-04T08:11:19;102189.72;;;10.19;nan
3082;BME280;1551;51.046;7.010;2023-04-04T08:14:09;102196.28;;;10.62;nan
3082;BME280;1551;51.046;7.010;2023-04-04T08:16:59;102194.06;;;10.85;nan
3082;BME280;1551;51.046;7.010;2023-04-04T08:19:49;102191.84;;;10.49;nan
3082;BME280;1551;51.046;7.010;2023-04-04T08:22:39;102192.47;;;10.94;nan
3082;BME280;1551;51.046;7.010;2023-04-04T08:25:28;102191.19;;;11.30;nan
3082;BME280;1551;51.046;7.010;2023-04-04T08:28:18;102179.31;;;11.38;nan
3082;BME280;1551;51.046;7.010;2023-04-04T08:31:07;102193.09;;;11.47;nan
3082;BME280;1551;51.046;7.010;2023-04-04T08:33:58;102192.28;;;11.53;nan
3082;BME280;1551;51.046;7.010;2023-04-04T08:36:49;102188.13;;;11.64;nan
3082;BME280;1551;51.046;7.010;2023-04-04T08:39:37;102182.81;;;11.49;nan
3082;BME280;1551;51.046;7.010;2023-04-04T08:42:27;102178.09;;;11.87;nan
3082;BME280;1551;51.046;7.010;2023-04-04T08:45:17;102172.44;;;12.25;nan
3082;BME280;1551;51.046;7.010;2023-04-04T08:48:10;102174.19;;;12.34;nan
3082;BME280;1551;51.046;7.010;2023-04-04T08:51:02;102179.31;;;12.35;nan
3082;BME280;1551;51.046;7.010;2023-04-04T08:53:53;102169.97;;;12.43;nan
3082;BME280;1551;51.046;7.010;2023-04-04T08:56:42;102174.25;;;12.46;nan
3082;BME280;1551;51.046;7.010;2023-04-04T08:59:31;102180.44;;;12.77;nan
3082;BME280;1551;51.046;7.010;2023-04-04T09:05:55;102169.31;;;12.85;nan
3082;BME280;1551;51.046;7.010;2023-04-04T09:08:45;102176.03;;;12.58;nan
3082;BME280;1551;51.046;7.010;2023-04-04T09:11:35;102187.22;;;12.69;nan
3082;BME280;1551;51.046;7.010;2023-04-04T09:14:25;102178.00;;;13.08;nan
3082;BME280;1551;51.046;7.010;2023-04-04T09:17:14;102171.28;;;13.45;nan
3082;BME280;1551;51.046;7.010;2023-04-04T09:20:36;102183.28;;;13.52;nan
3082;BME280;1551;51.046;7.010;2023-04-04T09:23:25;102173.84;;;13.36;nan
3082;BME280;1551;51.046;7.010;2023-04-04T09:26:14;102179.00;;;13.74;nan
3082;BME280;1551;51.046;7.010;2023-04-04T09:29:07;102153.28;;;13.94;nan
3082;BME280;1551;51.046;7.010;2023-04-04T09:31:56;102173.00;;;14.29;nan
3082;BME280;1551;51.046;7.010;2023-04-04T09:34:46;102172.16;;;14.44;nan
3082;BME280;1551;51.046;7.010;2023-04-04T09:37:36;102171.22;;;14.65;nan
3082;BME280;1551;51.046;7.010;2023-04-04T09:40:27;102145.47;;;14.59;nan
3082;BME280;1551;51.046;7.010;2023-04-04T09:43:18;102177.94;;;15.06;nan
3082;BME280;1551;51.046;7.010;2023-04-04T09:46:09;102181.31;;;15.19;nan
3082;BME280;1551;51.046;7.010;2023-04-04T09:48:59;102179.25;;;15.75;nan
3082;BME280;1551;51.046;7.010;2023-04-04T09:51:52;102168.72;;;16.03;nan
3082;BME280;1551;51.046;7.010;2023-04-04T09:54:58;102175.31;;;16.29;nan
3082;BME280;1551;51.046;7.010;2023-04-04T09:57:48;102169.41;;;16.18;nan
3082;BME280;1551;51.046;7.010;2023-04-04T10:00:39;102146.41;;;15.90;nan
3082;BME280;1551;51.046;7.010;2023-04-04T10:03:30;102146.91;;;16.31;nan
3082;BME280;1551;51.046;7.010;2023-04-04T10:06:20;102158.66;;;16.62;nan
3082;BME280;1551;51.046;7.010;2023-04-04T10:09:09;102150.41;;;17.01;nan
3082;BME280;1551;51.046;7.010;2023-04-04T10:12:08;102145.47;;;17.46;nan
3082;BME280;1551;51.046;7.010;2023-04-04T10:14:58;102142.72;;;18.10;nan
3082;BME280;1551;51.046;7.010;2023-04-04T10:17:48;102147.31;;;18.40;nan
3082;BME280;1551;51.046;7.010;2023-04-04T10:20:41;102139.66;;;18.78;nan
3082;BME280;1551;51.046;7.010;2023-04-04T10:23:31;102131.66;;;19.27;nan
3082;BME280;1551;51.046;7.010;2023-04-04T10:26:22;102135.94;;;19.66;nan
3082;BME280;1551;51.046;7.010;2023-04-04T10:29:13;102134.66;;;19.82;nan
3082;BME280;1551;51.046;7.010;2023-04-04T10:32:05;102135.75;;;20.08;nan
3082;BME280;1551;51.046;7.010;2023-04-04T10:35:02;102129.53;;;20.13;nan
3082;BME280;1551;51.046;7.010;2023-04-04T10:37:58;102129.63;;;20.42;nan
3082;BME280;1551;51.046;7.010;2023-04-04T10:40:48;102123.63;;;21.28;nan
3082;BME280;1551;51.046;7.010;2023-04-04T10:43:40;102120.34;;;21.75;nan
3082;BME280;1551;51.046;7.010;2023-04-04T10:46:31;102115.31;;;21.43;nan
3082;BME280;1551;51.046;7.010;2023-04-04T10:49:22;102108.28;;;21.45;nan
3082;BME280;1551;51.046;7.010;2023-04-04T10:52:14;102109.75;;;21.54;nan
3082;BME280;1551;51.046;7.010;2023-04-04T10:55:05;102109.94;;;21.74;nan
3082;BME280;1551;51.046;7.010;2023-04-04T10:57:55;102094.13;;;21.78;nan
3082;BME280;1551;51.046;7.010;2023-04-04T11:00:48;102082.31;;;22.19;nan
3082;BME280;1551;51.046;7.010;2023-04-04T11:04:17;102097.06;;;22.43;nan
3082;BME280;1551;51.046;7.010;2023-04-04T11:10:00;102092.69;;;22.44;nan
3082;BME280;1551;51.046;7.010;2023-04-04T11:12:52;102086.94;;;23.04;nan
3082;BME280;1551;51.046;7.010;2023-04-04T11:15:55;102083.47;;;23.03;nan
3082;BME280;1551;51.046;7.010;2023-04-04T11:18:46;102073.25;;;23.19;nan
3082;BME280;1551;51.046;7.010;2023-04-04T11:21:37;102074.47;;;23.32;nan
3082;BME280;1551;51.046;7.010;2023-04-04T11:24:27;102071.31;;;23.86;nan
3082;BME280;1551;51.046;7.010;2023-04-04T11:27:16;102061.88;;;24.41;nan
3082;BME280;1551;51.046;7.010;2023-04-04T11:30:11;102066.13;;;22.33;nan
3082;BME280;1551;51.046;7.010;2023-04-04T11:33:02;102051.72;;;21.73;nan
3082;BME280;1551;51.046;7.010;2023-04-04T11:35:51;102055.47;;;23.07;nan
3082;BME280;1551;51.046;7.010;2023-04-04T11:38:47;102064.56;;;24.21;nan
3082;BME280;1551;51.046;7.010;2023-04-04T11:41:47;102055.63;;;23.24;nan
3082;BME280;1551;51.046;7.010;2023-04-04T11:45:00;102061.88;;;24.02;nan
3082;BME280;1551;51.046;7.010;2023-04-04T11:47:50;102064.06;;;24.31;nan
3082;BME280;1551;51.046;7.010;2023-04-04T11:50:41;102053.31;;;24.75;nan
3082;BME280;1551;51.046;7.010;2023-04-04T11:53:30;102061.41;;;24.70;nan
3082;BME280;1551;51.046;7.010;2023-04-04T11:56:19;102043.38;;;25.36;nan
3082;BME280;1551;51.046;7.010;2023-04-04T11:59:10;102045.91;;;25.37;nan
3082;BME280;1551;51.046;7.010;2023-04-04T12:01:59;102041.00;;;24.95;nan
3082;BME280;1551;51.046;7.010;2023-04-04T12:04:51;102026.94;;;24.79;nan
3082;BME280;1551;51.046;7.010;2023-04-04T12:07:40;102028.91;;;24.93;nan
3082;BME280;1551;51.046;7.010;2023-04-04T12:10:32;102026.72;;;25.19;nan
3082;BME280;1551;51.046;7.010;2023-04-04T12:13:29;102019.28;;;24.93;nan
3082;BME280;1551;51.046;7.010;2023-04-04T12:16:19;102025.44;;;24.74;nan
3082;BME280;1551;51.046;7.010;2023-04-04T12:19:08;102010.63;;;24.91;nan
3082;BME280;1551;51.046;7.010;2023-04-04T12:21:57;102014.72;;;24.04;nan
3082;BME280;1551;51.046;7.010;2023-04-04T12:24:45;102004.63;;;24.89;nan
3082;BME280;1551;51.046;7.010;2023-04-04T12:27:35;102000.19;;;25.25;nan
3082;BME280;1551;51.046;7.010;2023-04-04T12:30:25;102001.13;;;24.16;nan
3082;BME280;1551;51.046;7.010;2023-04-04T12:33:14;102000.78;;;24.96;nan
3082;BME280;1551;51.046;7.010;2023-04-04T12:36:04;101998.47;;;25.07;nan
3082;BME280;1551;51.046;7.010;2023-04-04T12:38:55;102009.09;;;25.90;nan
3082;BME280;1551;51.046;7.010;2023-04-04T12:41:47;101990.00;;;25.71;nan
3082;BME280;1551;51.046;7.010;2023-04-04T12:44:38;101995.91;;;26.07;nan
3082;BME280;1551;51.046;7.010;2023-04-04T12:47:29;101992.03;;;25.81;nan
3082;BME280;1551;51.046;7.010;2023-04-04T12:50:23;101975.59;;;25.28;nan
3082;BME280;1551;51.046;7.010;2023-04-04T12:53:14;101965.03;;;25.12;nan
3082;BME280;1551;51.046;7.010;2023-04-04T12:56:03;101971.59;;;25.04;nan
3082;BME280;1551;51.046;7.010;2023-04-04T12:58:59;101951.16;;;24.93;nan
3082;BME280;1551;51.046;7.010;2023-04-04T13:01:48;101956.84;;;25.36;nan
3082;BME280;1551;51.046;7.010;2023-04-04T13:04:37;101959.31;;;25.21;nan
3082;BME280;1551;51.046;7.010;2023-04-04T13:07:34;101931.50;;;24.49;nan
3082;BME280;1551;51.046;7.010;2023-04-04T13:13:45;101943.84;;;23.10;nan
3082;BME280;1551;51.046;7.010;2023-04-04T13:16:35;101949.84;;;23.12;nan
3082;BME280;1551;51.046;7.010;2023-04-04T13:19:24;101938.91;;;23.45;nan
3082;BME280;1551;51.046;7.010;2023-04-04T13:22:14;101931.25;;;23.00;nan
3082;BME280;1551;51.046;7.010;2023-04-04T13:25:04;101935.28;;;22.87;nan
3082;BME280;1551;51.046;7.010;2023-04-04T13:27:53;101935.09;;;22.70;nan
3082;BME280;1551;51.046;7.010;2023-04-04T13:30:42;101934.72;;;22.57;nan
3082;BME280;1551;51.046;7.010;2023-04-04T13:33:36;101920.53;;;22.42;nan
3082;BME280;1551;51.046;7.010;2023-04-04T13:36:26;101912.22;;;22.54;nan
3082;BME280;1551;51.046;7.010;2023-04-04T13:39:16;101920.28;;;22.92;nan
3082;BME280;1551;51.046;7.010;2023-04-04T13:42:05;101913.22;;;23.34;nan
3082;BME280;1551;51.046;7.010;2023-04-04T13:44:54;101913.88;;;22.99;nan
3082;BME280;1551;51.046;7.010;2023-04-04T13:47:42;101905.47;;;22.92;nan
3082;BME280;1551;51.046;7.010;2023-04-04T13:50:33;101898.13;;;22.58;nan
3082;BME280;1551;51.046;7.010;2023-04-04T13:53:22;101895.72;;;22.96;nan
3082;BME280;1551;51.046;7.010;2023-04-04T13:56:11;101891.34;;;23.16;nan
3082;BME280;1551;51.046;7.010;2023-04-04T13:59:00;101892.28;;;23.74;nan
3082;BME280;1551;51.046;7.010;2023-04-04T14:01:49;101880.72;;;23.01;nan
3082;BME280;1551;51.046;7.010;2023-04-04T14:04:38;101886.38;;;23.31;nan
3082;BME280;1551;51.046;7.010;2023-04-04T14:07:26;101877.78;;;23.08;nan
3082;BME280;1551;51.046;7.010;2023-04-04T14:10:16;101866.72;;;22.62;nan
3082;BME280;1551;51.046;7.010;2023-04-04T14:13:04;101872.38;;;20.35;nan
3082;BME280;1551;51.046;7.010;2023-04-04T14:15:54;101856.34;;;20.73;nan
3082;BME280;1551;51.046;7.010;2023-04-04T14:18:43;101853.34;;;20.59;nan
3082;BME280;1551;51.046;7.010;2023-04-04T14:21:32;101855.25;;;20.54;nan
3082;BME280;1551;51.046;7.010;2023-04-04T14:24:21;101852.38;;;20.08;nan
3082;BME280;1551;51.046;7.010;2023-04-04T14:27:10;101860.16;;;20.37;nan
3082;BME280;1551;51.046;7.010;2023-04-04T14:29:59;101853.09;;;20.40;nan
3082;BME280;1551;51.046;7.010;2023-04-04T14:32:49;101820.19;;;19.84;nan
3082;BME280;1551;51.046;7.010;2023-04-04T14:35:39;101834.44;;;19.09;nan
3082;BME280;1551;51.046;7.010;2023-04-04T14:38:29;101831.22;;;19.00;nan
3082;BME280;1551;51.046;7.010;2023-04-04T14:41:18;101818.34;;;19.60;nan
3082;BME280;1551;51.046;7.010;2023-04-04T14:44:08;101827.09;;;19.56;nan
3082;BME280;1551;51.046;7.010;2023-04-04T14:46:57;101820.78;;;19.34;nan
3082;BME280;1551;51.046;7.010;2023-04-04T14:49:46;101821.50;;;19.08;nan
3082;BME280;1551;51.046;7.010;2023-04-04T14:52:36;101832.22;;;18.96;nan
3082;BME280;1551;51.046;7.010;2023-04-04T14:55:25;101829.00;;;18.86;nan
3082;BME280;1551;51.046;7.010;2023-04-04T14:58:15;101817.84;;;18.83;nan
3082;BME280;1551;51.046;7.010;2023-04-04T15:01:04;101816.97;;;18.50;nan
3082;BME280;1551;51.046;7.010;2023-04-04T15:03:54;101821.59;;;18.36;nan
3082;BME280;1551;51.046;7.010;2023-04-04T15:06:44;101816.63;;;18.28;nan
3082;BME280;1551;51.046;7.010;2023-04-04T15:09:33;101811.19;;;18.01;nan
3082;BME280;1551;51.046;7.010;2023-04-04T15:12:22;101807.59;;;17.69;nan
3082;BME280;1551;51.046;7.010;2023-04-04T15:15:11;101800.66;;;17.29;nan
3082;BME280;1551;51.046;7.010;2023-04-04T15:18:01;101809.00;;;16.98;nan
3082;BME280;1551;51.046;7.010;2023-04-04T15:20:50;101809.03;;;16.97;nan
3082;BME280;1551;51.046;7.010;2023-04-04T15:23:39;101803.19;;;16.87;nan
3082;BME280;1551;51.046;7.010;2023-04-04T15:26:28;101807.56;;;16.30;nan
3082;BME280;1551;51.046;7.010;2023-04-04T15:29:17;101797.75;;;15.96;nan
3082;BME280;1551;51.046;7.010;2023-04-04T15:32:06;101795.28;;;15.88;nan
3082;BME280;1551;51.046;7.010;2023-04-04T15:34:55;101798.03;;;15.77;nan
3082;BME280;1551;51.046;7.010;2023-04-04T15:37:46;101792.03;;;15.74;nan
3082;BME280;1551;51.046;7.010;2023-04-04T15:40:36;101777.72;;;15.50;nan
3082;BME280;1551;51.046;7.010;2023-04-04T15:43:26;101787.25;;;15.44;nan
3082;BME280;1551;51.046;7.010;2023-04-04T15:46:18;101792.56;;;15.29;nan
3082;BME280;1551;51.046;7.010;2023-04-04T15:49:07;101789.53;;;14.93;nan
3082;BME280;1551;51.046;7.010;2023-04-04T15:51:57;101786.41;;;14.61;nan
3082;BME280;1551;51.046;7.010;2023-04-04T15:54:46;101773.72;;;14.41;nan
3082;BME280;1551;51.046;7.010;2023-04-04T15:57:35;101791.81;;;14.37;nan
3082;BME280;1551;51.046;7.010;2023-04-04T16:00:25;101778.13;;;14.21;nan
3082;BME280;1551;51.046;7.010;2023-04-04T16:03:15;101783.41;;;14.06;nan
3082;BME280;1551;51.046;7.010;2023-04-04T16:06:04;101785.25;;;13.82;nan